sensor_id;sensor_type;location;lat;lon;timestamp;temperature;humidity
73833;SHT30;62179;48.444;-4.464;2024-01-10T00:01:18;5.24;62.50
73833;SHT30;62179;48.444;-4.464;2024-01-10T00:03:44;5.23;62.15
73833;SHT30;62179;48.444;-4.464;2024-01-10T00:06:12;5.16;62.35
73833;SHT30;62179;48.444;-4.464;2024-01-10T00:08:38;5.20;62.75
73833;SHT30;62179;48.444;-4.464;2024-01-10T00:11:04;5.21;62.34
73833;SHT30;62179;48.444;-4.464;2024-01-10T00:13:31;5.27;63.06
73833;SHT30;62179;48.444;-4.464;2024-01-10T00:15:57;5.27;62.28
73833;SHT30;62179;48.444;-4.464;2024-01-10T00:18:24;5.30;62.92
73833;SHT30;62179;48.444;-4.464;2024-01-10T00:20:50;5.41;63.01
73833;SHT30;62179;48.444;-4.464;2024-01-10T00:23:19;5.45;63.54
73833;SHT30;62179;48.444;-4.464;2024-01-10T11:54:44;7.61;62.13
73833;SHT30;62179;48.444;-4.464;2024-01-10T11:57:20;7.61;62.69
73833;SHT30;62179;48.444;-4.464;2024-01-10T11:59:53;7.56;58.53
73833;SHT30;62179;48.444;-4.464;2024-01-10T12:02:20;7.57;63.46
73833;SHT30;62179;48.444;-4.464;2024-01-10T12:08:13;7.79;63.32
73833;SHT30;62179;48.444;-4.464;2024-01-10T12:11:03;7.95;64.42
73833;SHT30;62179;48.444;-4.464;2024-01-10T12:24:24;8.15;61.07
73833;SHT30;62179;48.444;-4.464;2024-01-10T12:27:52;8.08;62.76
73833;SHT30;62179;48.444;-4.464;2024-01-10T12:30:19;8.09;64.13
73833;SHT30;62179;48.444;-4.464;2024-01-10T12:32:50;8.06;61.52
73833;SHT30;62179;48.444;-4.464;2024-01-10T12:35:29;8.03;62.05
73833;SHT30;62179;48.444;-4.464;2024-01-10T12:38:20;8.05;63.87
73833;SHT30;62179;48.444;-4.464;2024-01-10T12:40:56;8.02;63.90
73833;SHT30;62179;48.444;-4.464;2024-01-10T12:43:31;7.99;63.51
73833;SHT30;62179;48.444;-4.464;2024-01-10T12:46:20;7.85;61.74
73833;SHT30;62179;48.444;-4.464;2024-01-10T12:49:01;7.75;62.57
73833;SHT30;62179;48.444;-4.464;2024-01-10T12:51:34;7.73;62.65
73833;SHT30;62179;48.444;-4.464;2024-01-10T12:54:16;7.64;61.52
73833;SHT30;62179;48.444;-4.464;2024-01-10T12:56:47;7.63;63.50
73833;SHT30;62179;48.444;-4.464;2024-01-10T12:59:15;7.64;63.82
73833;SHT30;62179;48.444;-4.464;2024-01-10T13:01:41;7.58;62.86
73833;SHT30;62179;48.444;-4.464;2024-01-10T13:04:07;7.60;62.72
73833;SHT30;62179;48.444;-4.464;2024-01-10T13:06:32;7.51;65.01
73833;SHT30;62179;48.444;-4.464;2024-01-10T13:08:58;7.56;64.38
73833;SHT30;62179;48.444;-4.464;2024-01-10T13:11:24;7.51;63.20
73833;SHT30;62179;48.444;-4.464;2024-01-10T13:13:49;7.50;63.85
73833;SHT30;62179;48.444;-4.464;2024-01-10T13:16:15;7.54;64.90
73833;SHT30;62179;48.444;-4.464;2024-01-10T13:18:42;7.50;63.94
73833;SHT30;62179;48.444;-4.464;2024-01-10T13:21:08;7.51;63.21
73833;SHT30;62179;48.444;-4.464;2024-01-10T13:23:33;7.47;64.35
73833;SHT30;62179;48.444;-4.464;2024-01-10T13:26:00;7.51;64.68
73833;SHT30;62179;48.444;-4.464;2024-01-10T13:28:25;7.54;66.74
73833;SHT30;62179;48.444;-4.464;2024-01-10T13:30:53;7.57;65.95
73833;SHT30;62179;48.444;-4.464;2024-01-10T13:33:23;7.56;64.12
73833;SHT30;62179;48.444;-4.464;2024-01-10T13:35:50;7.56;65.96
73833;SHT30;62179;48.444;-4.464;2024-01-10T13:38:19;7.57;65.21
73833;SHT30;62179;48.444;-4.464;2024-01-10T13:40:45;7.54;65.74
73833;SHT30;62179;48.444;-4.464;2024-01-10T13:43:10;7.54;66.70
73833;SHT30;62179;48.444;-4.464;2024-01-10T13:45:38;7.57;66.72
73833;SHT30;62179;48.444;-4.464;2024-01-10T13:48:04;7.53;65.07
73833;SHT30;62179;48.444;-4.464;2024-01-10T13:50:30;7.51;65.76
73833;SHT30;62179;48.444;-4.464;2024-01-10T13:52:55;7.54;66.46
73833;SHT30;62179;48.444;-4.464;2024-01-10T13:55:21;7.56;64.78
73833;SHT30;62179;48.444;-4.464;2024-01-10T13:57:50;7.53;65.52
73833;SHT30;62179;48.444;-4.464;2024-01-10T14:00:16;7.46;65.20
73833;SHT30;62179;48.444;-4.464;2024-01-10T14:02:42;7.46;64.33
73833;SHT30;62179;48.444;-4.464;2024-01-10T14:05:08;7.47;65.35
73833;SHT30;62179;48.444;-4.464;2024-01-10T14:07:35;7.50;65.16
73833;SHT30;62179;48.444;-4.464;2024-01-10T14:10:01;7.40;64.79
73833;SHT30;62179;48.444;-4.464;2024-01-10T14:12:27;7.44;66.45
73833;SHT30;62179;48.444;-4.464;2024-01-10T14:14:54;7.54;66.44
73833;SHT30;62179;48.444;-4.464;2024-01-10T14:17:20;7.64;64.34
73833;SHT30;62179;48.444;-4.464;2024-01-10T14:19:47;7.61;64.17
73833;SHT30;62179;48.444;-4.464;2024-01-10T14:22:15;7.54;64.90
73833;SHT30;62179;48.444;-4.464;2024-01-10T14:24:43;7.58;66.74
73833;SHT30;62179;48.444;-4.464;2024-01-10T14:27:08;7.63;66.41
73833;SHT30;62179;48.444;-4.464;2024-01-10T14:29:34;7.70;66.85
73833;SHT30;62179;48.444;-4.464;2024-01-10T14:31:59;7.64;65.14
73833;SHT30;62179;48.444;-4.464;2024-01-10T14:34:25;7.71;66.39
73833;SHT30;62179;48.444;-4.464;2024-01-10T14:36:50;7.78;65.87
73833;SHT30;62179;48.444;-4.464;2024-01-10T14:39:19;7.73;65.32
73833;SHT30;62179;48.444;-4.464;2024-01-10T14:41:45;7.75;66.58
73833;SHT30;62179;48.444;-4.464;2024-01-10T14:44:10;7.84;66.47
73833;SHT30;62179;48.444;-4.464;2024-01-10T14:46:38;7.82;67.09
73833;SHT30;62179;48.444;-4.464;2024-01-10T14:49:04;7.84;65.88
73833;SHT30;62179;48.444;-4.464;2024-01-10T14:51:29;7.79;63.83
73833;SHT30;62179;48.444;-4.464;2024-01-10T14:53:55;7.78;65.55
73833;SHT30;62179;48.444;-4.464;2024-01-10T14:56:21;7.77;67.57
73833;SHT30;62179;48.444;-4.464;2024-01-10T14:58:46;7.84;65.13
73833;SHT30;62179;48.444;-4.464;2024-01-10T15:01:15;7.75;63.80
73833;SHT30;62179;48.444;-4.464;2024-01-10T15:03:40;7.63;63.94
73833;SHT30;62179;48.444;-4.464;2024-01-10T15:06:08;7.68;67.08
73833;SHT30;62179;48.444;-4.464;2024-01-10T15:08:34;7.73;67.18
73833;SHT30;62179;48.444;-4.464;2024-01-10T15:11:00;7.68;64.32
73833;SHT30;62179;48.444;-4.464;2024-01-10T15:13:26;7.68;65.67
73833;SHT30;62179;48.444;-4.464;2024-01-10T15:15:51;7.70;64.63
73833;SHT30;62179;48.444;-4.464;2024-01-10T15:18:17;7.57;64.48
73833;SHT30;62179;48.444;-4.464;2024-01-10T15:20:48;7.44;64.49
73833;SHT30;62179;48.444;-4.464;2024-01-10T15:23:13;7.46;65.64
73833;SHT30;62179;48.444;-4.464;2024-01-10T15:25:39;7.43;65.29
73833;SHT30;62179;48.444;-4.464;2024-01-10T15:28:04;7.43;66.72
73833;SHT30;62179;48.444;-4.464;2024-01-10T15:30:30;7.47;67.10
73833;SHT30;62179;48.444;-4.464;2024-01-10T15:32:57;7.57;66.82
73833;SHT30;62179;48.444;-4.464;2024-01-10T15:36:04;7.48;65.17
73833;SHT30;62179;48.444;-4.464;2024-01-10T15:38:52;7.40;64.92
73833;SHT30;62179;48.444;-4.464;2024-01-10T15:45:20;7.50;67.63
73833;SHT30;62179;48.444;-4.464;2024-01-10T15:48:19;7.58;66.28
73833;SHT30;62179;48.444;-4.464;2024-01-10T15:53:52;7.66;66.90
73833;SHT30;62179;48.444;-4.464;2024-01-10T15:59:39;7.70;67.32
73833;SHT30;62179;48.444;-4.464;2024-01-10T16:02:25;7.70;67.74
73833;SHT30;62179;48.444;-4.464;2024-01-10T16:04:55;7.73;66.30
73833;SHT30;62179;48.444;-4.464;2024-01-10T16:07:23;7.77;66.41
73833;SHT30;62179;48.444;-4.464;2024-01-10T16:09:49;7.77;66.33
73833;SHT30;62179;48.444;-4.464;2024-01-10T16:15:23;7.74;66.99
73833;SHT30;62179;48.444;-4.464;2024-01-10T16:21:15;7.73;67.41
73833;SHT30;62179;48.444;-4.464;2024-01-10T16:24:04;7.73;66.47
73833;SHT30;62179;48.444;-4.464;2024-01-10T16:26:30;7.77;68.21
73833;SHT30;62179;48.444;-4.464;2024-01-10T16:28:56;7.77;67.57
73833;SHT30;62179;48.444;-4.464;2024-01-10T16:31:22;7.75;66.43
73833;SHT30;62179;48.444;-4.464;2024-01-10T16:33:47;7.77;66.07
73833;SHT30;62179;48.444;-4.464;2024-01-10T16:36:13;7.78;66.95
73833;SHT30;62179;48.444;-4.464;2024-01-10T16:38:38;7.84;67.77
73833;SHT30;62179;48.444;-4.464;2024-01-10T16:41:05;7.87;67.95
73833;SHT30;62179;48.444;-4.464;2024-01-10T16:43:30;7.87;66.63
73833;SHT30;62179;48.444;-4.464;2024-01-10T16:45:56;7.82;65.76
73833;SHT30;62179;48.444;-4.464;2024-01-10T16:48:23;7.85;67.82
73833;SHT30;62179;48.444;-4.464;2024-01-10T16:50:49;7.81;67.32
73833;SHT30;62179;48.444;-4.464;2024-01-10T16:53:15;7.82;68.08
73833;SHT30;62179;48.444;-4.464;2024-01-10T16:55:40;7.81;67.46
73833;SHT30;62179;48.444;-4.464;2024-01-10T16:58:08;7.77;66.52
73833;SHT30;62179;48.444;-4.464;2024-01-10T17:00:34;7.74;68.08
73833;SHT30;62179;48.444;-4.464;2024-01-10T17:03:00;7.67;66.33
73833;SHT30;62179;48.444;-4.464;2024-01-10T17:05:25;7.70;68.51
73833;SHT30;62179;48.444;-4.464;2024-01-10T17:07:51;7.66;67.10
73833;SHT30;62179;48.444;-4.464;2024-01-10T17:10:17;7.67;66.97
73833;SHT30;62179;48.444;-4.464;2024-01-10T17:12:43;7.68;67.48
73833;SHT30;62179;48.444;-4.464;2024-01-10T17:15:09;7.70;67.48
73833;SHT30;62179;48.444;-4.464;2024-01-10T17:17:35;7.70;67.73
73833;SHT30;62179;48.444;-4.464;2024-01-10T17:20:04;7.71;66.16
73833;SHT30;62179;48.444;-4.464;2024-01-10T17:22:31;7.71;67.04
73833;SHT30;62179;48.444;-4.464;2024-01-10T17:25:00;7.70;65.75
73833;SHT30;62179;48.444;-4.464;2024-01-10T17:27:25;7.61;65.93
73833;SHT30;62179;48.444;-4.464;2024-01-10T17:29:53;7.61;67.06
73833;SHT30;62179;48.444;-4.464;2024-01-10T17:32:18;7.63;67.80
73833;SHT30;62179;48.444;-4.464;2024-01-10T17:34:44;7.71;67.61
73833;SHT30;62179;48.444;-4.464;2024-01-10T17:37:10;7.73;67.55
73833;SHT30;62179;48.444;-4.464;2024-01-10T17:39:35;7.71;67.81
73833;SHT30;62179;48.444;-4.464;2024-01-10T17:42:03;7.73;67.83
73833;SHT30;62179;48.444;-4.464;2024-01-10T17:44:29;7.70;66.13
73833;SHT30;62179;48.444;-4.464;2024-01-10T17:46:54;7.73;67.97
73833;SHT30;62179;48.444;-4.464;2024-01-10T17:49:20;7.74;68.54
73833;SHT30;62179;48.444;-4.464;2024-01-10T17:51:46;7.77;68.09
73833;SHT30;62179;48.444;-4.464;2024-01-10T17:54:27;7.77;67.43
73833;SHT30;62179;48.444;-4.464;2024-01-10T17:56:52;7.89;68.01
73833;SHT30;62179;48.444;-4.464;2024-01-10T17:59:18;7.98;67.91
73833;SHT30;62179;48.444;-4.464;2024-01-10T18:01:43;7.98;67.42
73833;SHT30;62179;48.444;-4.464;2024-01-10T18:04:09;7.95;67.82
73833;SHT30;62179;48.444;-4.464;2024-01-10T18:06:35;7.94;67.24
73833;SHT30;62179;48.444;-4.464;2024-01-10T18:09:01;7.94;67.99
73833;SHT30;62179;48.444;-4.464;2024-01-10T18:11:28;7.91;67.07
73833;SHT30;62179;48.444;-4.464;2024-01-10T18:13:53;7.94;67.64
73833;SHT30;62179;48.444;-4.464;2024-01-10T18:16:19;7.91;66.40
73833;SHT30;62179;48.444;-4.464;2024-01-10T18:18:44;7.89;65.45
73833;SHT30;62179;48.444;-4.464;2024-01-10T18:21:10;7.87;67.97
73833;SHT30;62179;48.444;-4.464;2024-01-10T18:23:35;7.84;65.24
73833;SHT30;62179;48.444;-4.464;2024-01-10T18:26:01;7.74;64.97
73833;SHT30;62179;48.444;-4.464;2024-01-10T18:28:26;7.73;66.47
73833;SHT30;62179;48.444;-4.464;2024-01-10T18:30:52;7.77;66.85
73833;SHT30;62179;48.444;-4.464;2024-01-10T18:33:17;7.78;68.40
73833;SHT30;62179;48.444;-4.464;2024-01-10T18:35:43;7.82;67.67
73833;SHT30;62179;48.444;-4.464;2024-01-10T18:38:09;7.89;68.41
73833;SHT30;62179;48.444;-4.464;2024-01-10T18:40:35;7.88;68.24
73833;SHT30;62179;48.444;-4.464;2024-01-10T18:43:03;7.91;67.32
73833;SHT30;62179;48.444;-4.464;2024-01-10T18:45:29;7.89;67.61
73833;SHT30;62179;48.444;-4.464;2024-01-10T18:47:55;7.89;68.01
73833;SHT30;62179;48.444;-4.464;2024-01-10T18:50:20;7.91;67.19
73833;SHT30;62179;48.444;-4.464;2024-01-10T18:52:46;7.85;65.99
73833;SHT30;62179;48.444;-4.464;2024-01-10T18:55:11;7.78;65.38
73833;SHT30;62179;48.444;-4.464;2024-01-10T18:57:37;7.79;67.41
73833;SHT30;62179;48.444;-4.464;2024-01-10T19:00:05;7.87;68.90
73833;SHT30;62179;48.444;-4.464;2024-01-10T19:02:31;7.89;69.03
73833;SHT30;62179;48.444;-4.464;2024-01-10T19:04:57;7.89;67.62
73833;SHT30;62179;48.444;-4.464;2024-01-10T19:07:22;7.89;67.97
73833;SHT30;62179;48.444;-4.464;2024-01-10T19:09:48;7.92;68.60
73833;SHT30;62179;48.444;-4.464;2024-01-10T19:12:14;7.95;69.11
73833;SHT30;62179;48.444;-4.464;2024-01-10T19:14:40;7.98;69.45
73833;SHT30;62179;48.444;-4.464;2024-01-10T19:17:05;7.96;69.38
73833;SHT30;62179;48.444;-4.464;2024-01-10T19:19:31;7.96;69.10
73833;SHT30;62179;48.444;-4.464;2024-01-10T19:22:01;7.95;68.89
73833;SHT30;62179;48.444;-4.464;2024-01-10T19:24:30;7.96;69.62
73833;SHT30;62179;48.444;-4.464;2024-01-10T19:26:58;7.95;69.69
73833;SHT30;62179;48.444;-4.464;2024-01-10T19:29:24;7.98;69.83
73833;SHT30;62179;48.444;-4.464;2024-01-10T19:31:49;7.95;70.50
73833;SHT30;62179;48.444;-4.464;2024-01-10T19:34:15;7.94;70.37
73833;SHT30;62179;48.444;-4.464;2024-01-10T19:36:41;7.98;70.78
73833;SHT30;62179;48.444;-4.464;2024-01-10T19:39:07;7.98;70.54
73833;SHT30;62179;48.444;-4.464;2024-01-10T19:41:32;7.96;70.91
73833;SHT30;62179;48.444;-4.464;2024-01-10T19:43:58;7.96;70.91
73833;SHT30;62179;48.444;-4.464;2024-01-10T19:46:23;7.98;70.95
73833;SHT30;62179;48.444;-4.464;2024-01-10T19:48:49;7.92;71.54
73833;SHT30;62179;48.444;-4.464;2024-01-10T19:51:17;7.96;71.84
73833;SHT30;62179;48.444;-4.464;2024-01-10T19:53:42;7.95;71.46
73833;SHT30;62179;48.444;-4.464;2024-01-10T19:56:16;7.92;70.95
73833;SHT30;62179;48.444;-4.464;2024-01-10T19:58:42;7.92;71.56
73833;SHT30;62179;48.444;-4.464;2024-01-10T20:01:08;7.89;72.08
73833;SHT30;62179;48.444;-4.464;2024-01-10T20:03:35;7.91;71.97
73833;SHT30;62179;48.444;-4.464;2024-01-10T20:06:02;7.92;71.94
73833;SHT30;62179;48.444;-4.464;2024-01-10T20:08:30;7.89;71.61
73833;SHT30;62179;48.444;-4.464;2024-01-10T20:10:59;7.88;71.91
73833;SHT30;62179;48.444;-4.464;2024-01-10T20:13:25;7.88;71.80
73833;SHT30;62179;48.444;-4.464;2024-01-10T20:15:50;7.84;71.65
73833;SHT30;62179;48.444;-4.464;2024-01-10T20:18:16;7.75;72.34
73833;SHT30;62179;48.444;-4.464;2024-01-10T20:20:41;7.77;72.79
73833;SHT30;62179;48.444;-4.464;2024-01-10T20:23:08;7.82;72.38
73833;SHT30;62179;48.444;-4.464;2024-01-10T20:25:33;7.75;72.41
73833;SHT30;62179;48.444;-4.464;2024-01-10T20:27:59;7.75;72.63
73833;SHT30;62179;48.444;-4.464;2024-01-10T20:30:25;7.75;72.71
73833;SHT30;62179;48.444;-4.464;2024-01-10T20:32:51;7.71;72.13
73833;SHT30;62179;48.444;-4.464;2024-01-10T20:35:17;7.61;72.25
73833;SHT30;62179;48.444;-4.464;2024-01-10T20:37:42;7.67;73.19
73833;SHT30;62179;48.444;-4.464;2024-01-10T20:40:08;7.70;73.13
73833;SHT30;62179;48.444;-4.464;2024-01-10T20:42:34;7.74;72.49
73833;SHT30;62179;48.444;-4.464;2024-01-10T20:45:01;7.75;72.34
73833;SHT30;62179;48.444;-4.464;2024-01-10T20:47:28;7.74;72.48
73833;SHT30;62179;48.444;-4.464;2024-01-10T20:49:57;7.77;72.76
73833;SHT30;62179;48.444;-4.464;2024-01-10T20:52:24;7.73;73.12
73833;SHT30;62179;48.444;-4.464;2024-01-10T20:54:50;7.74;73.16
73833;SHT30;62179;48.444;-4.464;2024-01-10T20:57:20;7.73;73.30
73833;SHT30;62179;48.444;-4.464;2024-01-10T20:59:46;7.68;72.98
73833;SHT30;62179;48.444;-4.464;2024-01-10T21:02:12;7.57;71.74
73833;SHT30;62179;48.444;-4.464;2024-01-10T21:04:38;7.48;72.50
73833;SHT30;62179;48.444;-4.464;2024-01-10T21:07:03;7.50;72.00
73833;SHT30;62179;48.444;-4.464;2024-01-10T21:09:32;7.42;71.85
73833;SHT30;62179;48.444;-4.464;2024-01-10T21:11:58;7.43;71.64
73833;SHT30;62179;48.444;-4.464;2024-01-10T21:14:24;7.44;72.51
73833;SHT30;62179;48.444;-4.464;2024-01-10T21:16:49;7.36;71.72
73833;SHT30;62179;48.444;-4.464;2024-01-10T21:19:16;7.33;72.42
73833;SHT30;62179;48.444;-4.464;2024-01-10T21:21:43;7.34;72.13
73833;SHT30;62179;48.444;-4.464;2024-01-10T21:24:09;7.31;72.35
73833;SHT30;62179;48.444;-4.464;2024-01-10T21:26:34;7.30;72.55
73833;SHT30;62179;48.444;-4.464;2024-01-10T21:29:00;7.26;72.03
73833;SHT30;62179;48.444;-4.464;2024-01-10T21:31:26;7.33;73.14
73833;SHT30;62179;48.444;-4.464;2024-01-10T21:33:52;7.34;72.25
73833;SHT30;62179;48.444;-4.464;2024-01-10T21:36:17;7.46;74.06
73833;SHT30;62179;48.444;-4.464;2024-01-10T21:38:43;7.57;73.37
73833;SHT30;62179;48.444;-4.464;2024-01-10T21:41:09;7.56;72.30
73833;SHT30;62179;48.444;-4.464;2024-01-10T21:43:35;7.57;73.34
73833;SHT30;62179;48.444;-4.464;2024-01-10T21:46:01;7.66;73.34
73833;SHT30;62179;48.444;-4.464;2024-01-10T21:48:27;7.71;72.97
73833;SHT30;62179;48.444;-4.464;2024-01-10T21:50:53;7.75;73.18
73833;SHT30;62179;48.444;-4.464;2024-01-10T21:53:18;7.78;73.19
